Saint Petersburg, FL (33706)

3:20 PM EDT on September 02, 2015 (GMT -0400)
Brightwater | | Change Station
CLOSE
Current Station
Personal Weather Station
Location: Saint Pete Beach, FL
Elevation: 0 ft
Nearby Weather Stations

Elev 0 ft 27.73 °N, 82.74 °W | Updated 8 minutes ago

Clear
Clear
87.6 °F
Feels Like 95 °F
N
6.3
Wind Variable Wind from West

Today
High -- | Low -- °F
--% Chance of Precip.
Yesterday
High -- | Low -- °F
Precip. -- in
7:10 AM 7:50 PM
Waning Gibbous, 78% visible
Pressure 30.02 in
Visibility 10.0 miles
Clouds Few 3800 ft
Heat Index 95 °F
Dew Point 73 °F
Humidity 62%
Rainfall 0.00 in
Snow Depth Not available.
UV 12 out of 12
Pollen 2.70 out of 12
Air Quality Not available.
Flu Activity Not available.
METAR KSPG 021853Z 26007KT 10SM FEW038 32/23 A3002 RMK AO2 SLP166 T03170233
Pressure 30.02 in
Visibility 10.0 miles
Clouds Few 3800 ft
Heat Index 95 °F
Dew Point 73 °F
Humidity 62%
Rainfall 0.00 in
Snow Depth Not available.
UV 12 out of 12
Pollen 2.70 out of 12
Air Quality Not available.
Flu Activity Not available.
METAR KSPG 021853Z 26007KT 10SM FEW038 32/23 A3002 RMK AO2 SLP166 T03170233

10-Day Weather Forecast

×

Almanac

Astronomy

Sep. 02, 2015 Rise Set
Actual Time
Civil Twilight
Nautical Twilight
Astronomical Twilight
Moon
Length of Visible Light
Length of Day
Tomorrow will be .
, % of the Moon is Illuminated

Today's Extremes

State Highs State Lows

Community

WunderPhotos

Upload Photos

1,851,799 photos uploaded!

WunderBlogs® & News

Nearby

Air Quality

  Air Quality AQ Index Pollutant
Not available.

Snow Depth

Station Depth Elevation

Earthquake Activity

City Distance Mag. Time & Date
Minimum magnitude displayed is 2.5.

Coastal Water Temperatures

Place Temperature

Stations

Nearby Weather Stations

Station Location Temp. Windchill Dew Point Humidity Wind Precip. Elev Updated Type